sensor_id;sensor_type;location;lat;lon;timestamp;pressure;altitude;pressure_sealevel;temperature;humidity
64792;BME280;51226;47.504;19.074;2022-11-15T00:00:09;100772.78;;;7.65;83.00
64792;BME280;51226;47.504;19.074;2022-11-15T00:03:40;100774.56;;;7.66;82.91
64792;BME280;51226;47.504;19.074;2022-11-15T00:07:01;100771.31;;;7.70;82.43
64792;BME280;51226;47.504;19.074;2022-11-15T00:10:22;100778.31;;;7.71;82.23
64792;BME280;51226;47.504;19.074;2022-11-15T00:13:45;100768.09;;;7.74;81.83
64792;BME280;51226;47.504;19.074;2022-11-15T00:17:09;100765.34;;;7.71;81.89
64792;BME280;51226;47.504;19.074;2022-11-15T00:20:33;100771.16;;;7.67;82.18
64792;BME280;51226;47.504;19.074;2022-11-15T00:23:58;100768.72;;;7.70;82.18
64792;BME280;51226;47.504;19.074;2022-11-15T00:27:20;100766.22;;;7.71;82.10
64792;BME280;51226;47.504;19.074;2022-11-15T00:30:41;100765.25;;;7.69;82.11
64792;BME280;51226;47.504;19.074;2022-11-15T00:34:04;100775.63;;;7.69;81.95
64792;BME280;51226;47.504;19.074;2022-11-15T00:37:26;100768.66;;;7.68;81.74
64792;BME280;51226;47.504;19.074;2022-11-15T00:40:47;100765.91;;;7.65;81.87
64792;BME280;51226;47.504;19.074;2022-11-15T00:44:09;100760.72;;;7.65;81.89
64792;BME280;51226;47.504;19.074;2022-11-15T00:47:32;100751.47;;;7.70;81.55
64792;BME280;51226;47.504;19.074;2022-11-15T00:50:53;100757.72;;;7.74;80.92
64792;BME280;51226;47.504;19.074;2022-11-15T00:54:15;100752.19;;;7.68;81.08
64792;BME280;51226;47.504;19.074;2022-11-15T00:57:42;100744.25;;;7.81;80.51
64792;BME280;51226;47.504;19.074;2022-11-15T01:01:11;100743.78;;;7.72;80.76
64792;BME280;51226;47.504;19.074;2022-11-15T01:04:35;100744.41;;;7.68;80.74
64792;BME280;51226;47.504;19.074;2022-11-15T01:08:00;100746.19;;;7.69;80.68
64792;BME280;51226;47.504;19.074;2022-11-15T01:11:24;100742.28;;;7.60;81.18
64792;BME280;51226;47.504;19.074;2022-11-15T01:14:45;100743.16;;;7.61;81.38
64792;BME280;51226;47.504;19.074;2022-11-15T01:18:06;100729.38;;;7.62;81.15
64792;BME280;51226;47.504;19.074;2022-11-15T01:21:27;100733.03;;;7.66;80.85
64792;BME280;51226;47.504;19.074;2022-11-15T01:24:49;100726.22;;;7.68;80.69
64792;BME280;51226;47.504;19.074;2022-11-15T01:28:14;100720.22;;;7.69;80.68
64792;BME280;51226;47.504;19.074;2022-11-15T01:31:36;100722.53;;;7.79;79.81
64792;BME280;51226;47.504;19.074;2022-11-15T01:35:00;100715.84;;;7.68;80.33
64792;BME280;51226;47.504;19.074;2022-11-15T01:38:23;100708.84;;;7.67;80.46
64792;BME280;51226;47.504;19.074;2022-11-15T01:41:45;100712.75;;;7.75;80.01
64792;BME280;51226;47.504;19.074;2022-11-15T01:45:13;100709.84;;;7.69;80.13
64792;BME280;51226;47.504;19.074;2022-11-15T01:48:37;100716.41;;;7.62;80.40
64792;BME280;51226;47.504;19.074;2022-11-15T01:52:01;100712.19;;;7.64;80.37
64792;BME280;51226;47.504;19.074;2022-11-15T01:55:25;100707.16;;;7.67;80.21
64792;BME280;51226;47.504;19.074;2022-11-15T01:58:48;100697.31;;;7.61;80.47
64792;BME280;51226;47.504;19.074;2022-11-15T02:02:11;100707.00;;;7.64;80.15
64792;BME280;51226;47.504;19.074;2022-11-15T02:05:36;100710.56;;;7.66;80.08
64792;BME280;51226;47.504;19.074;2022-11-15T02:09:02;100697.25;;;7.60;80.47
64792;BME280;51226;47.504;19.074;2022-11-15T02:12:24;100697.41;;;7.63;80.19
64792;BME280;51226;47.504;19.074;2022-11-15T02:27:42;100681.63;;;7.58;80.08
64792;BME280;51226;47.504;19.074;2022-11-15T02:31:30;100685.50;;;7.67;79.59
64792;BME280;51226;47.504;19.074;2022-11-15T02:35:07;100682.84;;;7.65;79.57
64792;BME280;51226;47.504;19.074;2022-11-15T02:38:56;100677.78;;;7.68;79.55
64792;BME280;51226;47.504;19.074;2022-11-15T02:42:28;100682.66;;;7.62;79.93
64792;BME280;51226;47.504;19.074;2022-11-15T02:46:26;100669.03;;;7.66;79.66
64792;BME280;51226;47.504;19.074;2022-11-15T02:50:13;100675.59;;;7.59;80.00
64792;BME280;51226;47.504;19.074;2022-11-15T02:53:36;100672.03;;;7.57;80.20
64792;BME280;51226;47.504;19.074;2022-11-15T02:57:13;100677.37;;;7.60;80.13
64792;BME280;51226;47.504;19.074;2022-11-15T03:04:23;100673.31;;;7.49;80.89
64792;BME280;51226;47.504;19.074;2022-11-15T03:11:38;100674.72;;;7.59;80.83
64792;BME280;51226;47.504;19.074;2022-11-15T03:15:16;100675.06;;;7.65;80.44
64792;BME280;51226;47.504;19.074;2022-11-15T03:18:47;100677.69;;;7.67;80.26
64792;BME280;51226;47.504;19.074;2022-11-15T03:22:15;100670.00;;;7.68;80.11
64792;BME280;51226;47.504;19.074;2022-11-15T03:25:46;100662.22;;;7.68;79.96
64792;BME280;51226;47.504;19.074;2022-11-15T03:29:22;100664.81;;;7.68;79.91
64792;BME280;51226;47.504;19.074;2022-11-15T03:32:58;100650.69;;;7.63;80.10
64792;BME280;51226;47.504;19.074;2022-11-15T03:36:24;100646.31;;;7.62;80.12
64792;BME280;51226;47.504;19.074;2022-11-15T03:39:46;100643.66;;;7.60;80.23
64792;BME280;51226;47.504;19.074;2022-11-15T03:43:36;100647.13;;;7.61;80.31
64792;BME280;51226;47.504;19.074;2022-11-15T03:47:06;100647.28;;;7.64;80.16
64792;BME280;51226;47.504;19.074;2022-11-15T03:50:29;100647.03;;;7.59;80.50
64792;BME280;51226;47.504;19.074;2022-11-15T03:53:51;100648.84;;;7.60;80.57
64792;BME280;51226;47.504;19.074;2022-11-15T03:57:12;100630.75;;;7.62;80.61
64792;BME280;51226;47.504;19.074;2022-11-15T04:00:33;100640.66;;;7.69;80.46
64792;BME280;51226;47.504;19.074;2022-11-15T04:03:55;100618.59;;;7.77;80.13
64792;BME280;51226;47.504;19.074;2022-11-15T04:07:16;100620.59;;;7.67;80.41
64792;BME280;51226;47.504;19.074;2022-11-15T04:10:38;100613.72;;;7.67;80.16
64792;BME280;51226;47.504;19.074;2022-11-15T04:13:59;100606.66;;;7.65;80.16
64792;BME280;51226;47.504;19.074;2022-11-15T04:17:20;100593.50;;;7.61;80.38
64792;BME280;51226;47.504;19.074;2022-11-15T04:20:42;100588.97;;;7.57;80.49
64792;BME280;51226;47.504;19.074;2022-11-15T04:24:22;100601.78;;;7.54;80.87
64792;BME280;51226;47.504;19.074;2022-11-15T04:27:43;100613.22;;;7.58;80.80
64792;BME280;51226;47.504;19.074;2022-11-15T04:31:04;100605.50;;;7.59;80.68
64792;BME280;51226;47.504;19.074;2022-11-15T04:34:25;100613.37;;;7.61;80.58
64792;BME280;51226;47.504;19.074;2022-11-15T04:37:46;100600.41;;;7.61;80.54
64792;BME280;51226;47.504;19.074;2022-11-15T04:41:09;100597.31;;;7.68;80.09
64792;BME280;51226;47.504;19.074;2022-11-15T04:44:30;100595.47;;;7.66;80.15
64792;BME280;51226;47.504;19.074;2022-11-15T04:47:52;100595.12;;;7.76;81.01
64792;BME280;51226;47.504;19.074;2022-11-15T04:51:13;100591.41;;;7.71;81.06
64792;BME280;51226;47.504;19.074;2022-11-15T04:54:35;100598.22;;;7.69;80.33
64792;BME280;51226;47.504;19.074;2022-11-15T04:58:00;100589.44;;;7.67;79.98
64792;BME280;51226;47.504;19.074;2022-11-15T05:01:22;100578.09;;;7.65;80.03
64792;BME280;51226;47.504;19.074;2022-11-15T05:04:43;100586.22;;;7.71;79.86
64792;BME280;51226;47.504;19.074;2022-11-15T05:08:04;100577.62;;;7.72;79.86
64792;BME280;51226;47.504;19.074;2022-11-15T05:11:25;100581.28;;;7.75;79.79
64792;BME280;51226;47.504;19.074;2022-11-15T05:14:48;100585.47;;;7.73;79.87
64792;BME280;51226;47.504;19.074;2022-11-15T05:18:10;100583.88;;;7.75;80.08
64792;BME280;51226;47.504;19.074;2022-11-15T05:21:32;100589.13;;;7.77;80.14
64792;BME280;51226;47.504;19.074;2022-11-15T05:24:53;100587.50;;;7.79;80.11
64792;BME280;51226;47.504;19.074;2022-11-15T05:28:14;100594.53;;;7.82;80.05
64792;BME280;51226;47.504;19.074;2022-11-15T05:31:39;100593.91;;;7.86;79.98
64792;BME280;51226;47.504;19.074;2022-11-15T05:35:02;100602.59;;;7.86;79.83
64792;BME280;51226;47.504;19.074;2022-11-15T05:38:26;100599.19;;;7.87;79.60
64792;BME280;51226;47.504;19.074;2022-11-15T05:41:51;100594.78;;;7.86;79.54
64792;BME280;51226;47.504;19.074;2022-11-15T05:45:13;100593.09;;;7.87;79.46
64792;BME280;51226;47.504;19.074;2022-11-15T05:48:36;100601.12;;;7.91;79.35
64792;BME280;51226;47.504;19.074;2022-11-15T05:51:58;100588.22;;;7.93;79.23
64792;BME280;51226;47.504;19.074;2022-11-15T05:55:20;100592.44;;;8.07;79.29
64792;BME280;51226;47.504;19.074;2022-11-15T05:58:42;100587.78;;;8.02;79.31
64792;BME280;51226;47.504;19.074;2022-11-15T06:02:05;100582.91;;;8.08;78.84
64792;BME280;51226;47.504;19.074;2022-11-15T06:05:26;100577.66;;;8.06;78.93
64792;BME280;51226;47.504;19.074;2022-11-15T06:08:48;100574.00;;;8.03;79.14
64792;BME280;51226;47.504;19.074;2022-11-15T06:12:09;100573.41;;;8.08;79.04
64792;BME280;51226;47.504;19.074;2022-11-15T06:15:32;100576.34;;;8.14;79.83
64792;BME280;51226;47.504;19.074;2022-11-15T06:18:54;100577.69;;;8.24;80.04
64792;BME280;51226;47.504;19.074;2022-11-15T06:22:18;100569.63;;;8.36;79.23
64792;BME280;51226;47.504;19.074;2022-11-15T06:25:39;100567.66;;;8.48;77.75
64792;BME280;51226;47.504;19.074;2022-11-15T06:29:02;100579.41;;;8.42;78.16
64792;BME280;51226;47.504;19.074;2022-11-15T06:32:23;100586.34;;;8.41;78.07
64792;BME280;51226;47.504;19.074;2022-11-15T06:35:45;100591.62;;;8.43;78.04
64792;BME280;51226;47.504;19.074;2022-11-15T06:39:06;100586.59;;;8.46;78.09
64792;BME280;51226;47.504;19.074;2022-11-15T06:42:28;100580.72;;;8.50;78.25
64792;BME280;51226;47.504;19.074;2022-11-15T06:45:50;100579.25;;;8.55;77.98
64792;BME280;51226;47.504;19.074;2022-11-15T06:49:11;100581.56;;;8.49;78.62
64792;BME280;51226;47.504;19.074;2022-11-15T06:52:32;100586.91;;;8.52;78.85
64792;BME280;51226;47.504;19.074;2022-11-15T06:55:58;100587.62;;;8.49;78.95
64792;BME280;51226;47.504;19.074;2022-11-15T06:59:19;100585.13;;;8.51;78.94
64792;BME280;51226;47.504;19.074;2022-11-15T07:02:40;100589.31;;;8.65;78.83
64792;BME280;51226;47.504;19.074;2022-11-15T07:06:01;100581.19;;;8.59;79.11
64792;BME280;51226;47.504;19.074;2022-11-15T07:09:28;100569.37;;;8.66;78.86
64792;BME280;51226;47.504;19.074;2022-11-15T07:12:49;100573.31;;;8.76;78.49
64792;BME280;51226;47.504;19.074;2022-11-15T07:16:10;100582.97;;;8.78;78.17
64792;BME280;51226;47.504;19.074;2022-11-15T07:19:32;100574.94;;;8.74;78.32
64792;BME280;51226;47.504;19.074;2022-11-15T07:23:05;100563.00;;;8.77;78.31
64792;BME280;51226;47.504;19.074;2022-11-15T07:26:26;100561.84;;;8.90;77.92
64792;BME280;51226;47.504;19.074;2022-11-15T07:29:47;100557.31;;;9.04;77.31
64792;BME280;51226;47.504;19.074;2022-11-15T07:33:08;100561.41;;;8.99;77.53
64792;BME280;51226;47.504;19.074;2022-11-15T07:36:29;100560.44;;;8.97;77.27
64792;BME280;51226;47.504;19.074;2022-11-15T07:39:50;100561.03;;;8.91;77.92
64792;BME280;51226;47.504;19.074;2022-11-15T07:43:12;100565.22;;;8.87;78.20
64792;BME280;51226;47.504;19.074;2022-11-15T07:46:33;100568.09;;;8.94;78.35
64792;BME280;51226;47.504;19.074;2022-11-15T07:49:54;100571.75;;;8.97;78.13
64792;BME280;51226;47.504;19.074;2022-11-15T07:53:16;100546.41;;;8.93;78.04
64792;BME280;51226;47.504;19.074;2022-11-15T07:56:38;100544.16;;;9.01;77.54
64792;BME280;51226;47.504;19.074;2022-11-15T07:59:59;100546.16;;;9.06;77.44
64792;BME280;51226;47.504;19.074;2022-11-15T08:03:21;100559.22;;;9.08;77.65
64792;BME280;51226;47.504;19.074;2022-11-15T08:06:42;100565.91;;;9.21;76.91
64792;BME280;51226;47.504;19.074;2022-11-15T08:10:05;100549.44;;;9.22;76.95
64792;BME280;51226;47.504;19.074;2022-11-15T08:13:27;100547.91;;;9.25;76.96
64792;BME280;51226;47.504;19.074;2022-11-15T08:16:49;100543.72;;;9.29;76.71
64792;BME280;51226;47.504;19.074;2022-11-15T08:20:11;100536.31;;;9.38;76.53
64792;BME280;51226;47.504;19.074;2022-11-15T08:23:32;100541.38;;;9.35;76.90
64792;BME280;51226;47.504;19.074;2022-11-15T08:26:53;100531.81;;;9.34;76.99
64792;BME280;51226;47.504;19.074;2022-11-15T08:30:15;100523.88;;;9.31;77.69
64792;BME280;51226;47.504;19.074;2022-11-15T08:33:36;100519.47;;;9.30;78.48
64792;BME280;51226;47.504;19.074;2022-11-15T08:36:58;100509.34;;;9.36;79.06
64792;BME280;51226;47.504;19.074;2022-11-15T08:40:19;100512.75;;;9.55;78.23
64792;BME280;51226;47.504;19.074;2022-11-15T08:43:40;100509.28;;;9.54;78.06
64792;BME280;51226;47.504;19.074;2022-11-15T08:47:02;100520.84;;;9.61;77.62
64792;BME280;51226;47.504;19.074;2022-11-15T08:50:23;100500.75;;;9.58;77.99
64792;BME280;51226;47.504;19.074;2022-11-15T08:53:44;100513.09;;;9.62;78.08
64792;BME280;51226;47.504;19.074;2022-11-15T08:57:06;100505.47;;;9.67;78.26
64792;BME280;51226;47.504;19.074;2022-11-15T09:00:27;100507.25;;;9.68;78.46
64792;BME280;51226;47.504;19.074;2022-11-15T09:03:50;100500.25;;;9.67;78.75
64792;BME280;51226;47.504;19.074;2022-11-15T09:07:11;100494.09;;;9.65;79.36
64792;BME280;51226;47.504;19.074;2022-11-15T09:10:33;100499.94;;;9.79;78.91
64792;BME280;51226;47.504;19.074;2022-11-15T09:13:55;100492.16;;;9.80;79.47
64792;BME280;51226;47.504;19.074;2022-11-15T09:17:16;100492.81;;;9.96;79.03
64792;BME280;51226;47.504;19.074;2022-11-15T09:20:44;100481.50;;;10.16;77.89
64792;BME280;51226;47.504;19.074;2022-11-15T09:24:06;100471.47;;;10.26;77.77
64792;BME280;51226;47.504;19.074;2022-11-15T09:27:28;100480.47;;;10.55;76.29
64792;BME280;51226;47.504;19.074;2022-11-15T09:30:49;100471.13;;;10.60;75.81
64792;BME280;51226;47.504;19.074;2022-11-15T09:34:11;100471.94;;;10.59;76.31
64792;BME280;51226;47.504;19.074;2022-11-15T09:37:32;100465.97;;;10.62;76.48
64792;BME280;51226;47.504;19.074;2022-11-15T09:48:18;100459.50;;;10.52;75.58
64792;BME280;51226;47.504;19.074;2022-11-15T09:51:29;100459.78;;;10.37;76.43
64792;BME280;51226;47.504;19.074;2022-11-15T09:54:38;100459.00;;;10.40;76.19
64792;BME280;51226;47.504;19.074;2022-11-15T09:58:03;100457.72;;;10.30;76.59
64792;BME280;51226;47.504;19.074;2022-11-15T10:01:25;100457.47;;;10.24;76.83
64792;BME280;51226;47.504;19.074;2022-11-15T10:04:32;100460.00;;;10.22;76.21
64792;BME280;51226;47.504;19.074;2022-11-15T10:11:02;100445.41;;;10.26;76.59
64792;BME280;51226;47.504;19.074;2022-11-15T10:14:28;100448.69;;;10.22;76.88
64792;BME280;51226;47.504;19.074;2022-11-15T10:21:20;100430.13;;;10.14;76.92
64792;BME280;51226;47.504;19.074;2022-11-15T10:24:27;100418.56;;;10.07;77.28
64792;BME280;51226;47.504;19.074;2022-11-15T10:27:33;100417.44;;;10.00;77.44
64792;BME280;51226;47.504;19.074;2022-11-15T10:30:41;100418.03;;;9.93;77.79
64792;BME280;51226;47.504;19.074;2022-11-15T10:33:43;100413.66;;;9.92;78.04
64792;BME280;51226;47.504;19.074;2022-11-15T10:36:57;100409.53;;;9.97;78.13
64792;BME280;51226;47.504;19.074;2022-11-15T10:40:04;100408.53;;;9.95;78.14
64792;BME280;51226;47.504;19.074;2022-11-15T10:43:16;100406.00;;;9.97;78.26
64792;BME280;51226;47.504;19.074;2022-11-15T10:46:23;100399.91;;;9.96;78.53
64792;BME280;51226;47.504;19.074;2022-11-15T10:49:58;100400.78;;;9.97;78.87
64792;BME280;51226;47.504;19.074;2022-11-15T10:53:01;100380.22;;;10.03;78.72
64792;BME280;51226;47.504;19.074;2022-11-15T10:56:08;100371.91;;;10.13;78.35
64792;BME280;51226;47.504;19.074;2022-11-15T10:59:16;100380.94;;;10.22;77.12
64792;BME280;51226;47.504;19.074;2022-11-15T11:02:28;100371.03;;;10.13;77.74
64792;BME280;51226;47.504;19.074;2022-11-15T11:05:36;100360.50;;;10.10;77.77
64792;BME280;51226;47.504;19.074;2022-11-15T11:08:56;100361.50;;;10.13;77.58
64792;BME280;51226;47.504;19.074;2022-11-15T11:12:03;100355.59;;;10.17;77.38
64792;BME280;51226;47.504;19.074;2022-11-15T11:15:15;100353.09;;;10.20;77.69
64792;BME280;51226;47.504;19.074;2022-11-15T11:18:33;100354.22;;;10.27;77.80
64792;BME280;51226;47.504;19.074;2022-11-15T11:22:09;100353.59;;;10.33;77.53
64792;BME280;51226;47.504;19.074;2022-11-15T11:25:28;100350.16;;;10.34;77.35
64792;BME280;51226;47.504;19.074;2022-11-15T11:28:47;100340.09;;;10.22;77.35
64792;BME280;51226;47.504;19.074;2022-11-15T11:31:58;100340.84;;;10.18;76.92
64792;BME280;51226;47.504;19.074;2022-11-15T11:38:50;100336.63;;;9.99;77.39
64792;BME280;51226;47.504;19.074;2022-11-15T11:45:40;100337.31;;;9.95;77.70
64792;BME280;51226;47.504;19.074;2022-11-15T11:48:57;100317.28;;;9.92;77.87
64792;BME280;51226;47.504;19.074;2022-11-15T11:52:15;100319.03;;;9.93;77.91
64792;BME280;51226;47.504;19.074;2022-11-15T11:55:24;100319.88;;;9.92;78.23
64792;BME280;51226;47.504;19.074;2022-11-15T11:58:34;100311.28;;;9.95;77.66
64792;BME280;51226;47.504;19.074;2022-11-15T12:01:43;100307.66;;;9.91;77.33
64792;BME280;51226;47.504;19.074;2022-11-15T12:04:50;100304.87;;;9.87;77.52
64792;BME280;51226;47.504;19.074;2022-11-15T12:08:00;100301.56;;;9.91;77.66
64792;BME280;51226;47.504;19.074;2022-11-15T12:11:17;100298.13;;;9.92;77.70
64792;BME280;51226;47.504;19.074;2022-11-15T12:14:36;100283.69;;;9.77;77.50
64792;BME280;51226;47.504;19.074;2022-11-15T12:17:41;100281.91;;;9.76;77.75
64792;BME280;51226;47.504;19.074;2022-11-15T12:21:01;100283.69;;;9.77;78.24
64792;BME280;51226;47.504;19.074;2022-11-15T12:24:13;100277.16;;;9.89;78.21
64792;BME280;51226;47.504;19.074;2022-11-15T12:30:46;100273.91;;;9.94;78.59
64792;BME280;51226;47.504;19.074;2022-11-15T12:33:57;100265.44;;;10.00;78.68
64792;BME280;51226;47.504;19.074;2022-11-15T12:41:17;100262.78;;;9.98;77.98
64792;BME280;51226;47.504;19.074;2022-11-15T12:47:35;100257.03;;;9.85;77.81
64792;BME280;51226;47.504;19.074;2022-11-15T12:53:56;100246.97;;;9.71;78.39
64792;BME280;51226;47.504;19.074;2022-11-15T13:03:23;100231.56;;;9.55;79.60
64792;BME280;51226;47.504;19.074;2022-11-15T13:06:44;100234.44;;;9.61;79.89
64792;BME280;51226;47.504;19.074;2022-11-15T13:09:51;100231.75;;;9.59;80.24
64792;BME280;51226;47.504;19.074;2022-11-15T13:12:57;100239.50;;;9.58;80.11
64792;BME280;51226;47.504;19.074;2022-11-15T13:16:01;100231.75;;;9.59;80.32
64792;BME280;51226;47.504;19.074;2022-11-15T13:19:04;100238.69;;;9.59;80.43
64792;BME280;51226;47.504;19.074;2022-11-15T13:22:10;100242.12;;;9.58;80.06
64792;BME280;51226;47.504;19.074;2022-11-15T13:31:43;100236.87;;;9.79;79.78
64792;BME280;51226;47.504;19.074;2022-11-15T13:34:47;100218.62;;;9.79;79.99
64792;BME280;51226;47.504;19.074;2022-11-15T13:37:55;100223.13;;;9.83;79.65
64792;BME280;51226;47.504;19.074;2022-11-15T13:40:59;100218.66;;;9.80;79.60
64792;BME280;51226;47.504;19.074;2022-11-15T13:44:21;100221.06;;;9.74;79.23
64792;BME280;51226;47.504;19.074;2022-11-15T13:47:28;100212.66;;;9.81;79.54
64792;BME280;51226;47.504;19.074;2022-11-15T13:50:33;100212.75;;;9.85;79.96
64792;BME280;51226;47.504;19.074;2022-11-15T13:53:43;100207.50;;;9.83;79.40
64792;BME280;51226;47.504;19.074;2022-11-15T13:56:52;100191.00;;;9.82;79.72
64792;BME280;51226;47.504;19.074;2022-11-15T14:00:04;100187.41;;;9.80;79.98
64792;BME280;51226;47.504;19.074;2022-11-15T14:03:25;100182.22;;;9.80;79.57
64792;BME280;51226;47.504;19.074;2022-11-15T14:06:29;100186.47;;;9.78;79.50
64792;BME280;51226;47.504;19.074;2022-11-15T14:09:38;100184.59;;;9.74;79.48
64792;BME280;51226;47.504;19.074;2022-11-15T14:12:50;100176.34;;;9.63;79.77
64792;BME280;51226;47.504;19.074;2022-11-15T14:15:53;100184.66;;;9.53;79.96
64792;BME280;51226;47.504;19.074;2022-11-15T14:18:56;100181.72;;;9.44;80.08
64792;BME280;51226;47.504;19.074;2022-11-15T14:25:23;100183.81;;;9.32;80.21
64792;BME280;51226;47.504;19.074;2022-11-15T14:31:29;100173.22;;;9.27;80.21
64792;BME280;51226;47.504;19.074;2022-11-15T14:34:32;100162.37;;;9.16;80.77
64792;BME280;51226;47.504;19.074;2022-11-15T14:37:35;100160.44;;;9.11;81.06
64792;BME280;51226;47.504;19.074;2022-11-15T14:40:38;100157.78;;;9.09;81.45
64792;BME280;51226;47.504;19.074;2022-11-15T14:43:41;100154.16;;;9.05;81.91
64792;BME280;51226;47.504;19.074;2022-11-15T14:46:44;100150.47;;;9.00;81.86
64792;BME280;51226;47.504;19.074;2022-11-15T14:49:47;100145.25;;;9.00;82.09
64792;BME280;51226;47.504;19.074;2022-11-15T14:52:50;100139.31;;;9.03;82.43
64792;BME280;51226;47.504;19.074;2022-11-15T14:55:52;100129.78;;;9.03;82.30
64792;BME280;51226;47.504;19.074;2022-11-15T14:58:57;100126.75;;;8.93;82.48
64792;BME280;51226;47.504;19.074;2022-11-15T15:02:00;100124.97;;;8.92;82.76
64792;BME280;51226;47.504;19.074;2022-11-15T15:05:21;100132.03;;;8.94;82.68
64792;BME280;51226;47.504;19.074;2022-11-15T15:08:25;100135.37;;;8.92;82.51
64792;BME280;51226;47.504;19.074;2022-11-15T15:11:30;100132.84;;;8.93;82.71
64792;BME280;51226;47.504;19.074;2022-11-15T15:14:33;100141.59;;;8.95;82.32
64792;BME280;51226;47.504;19.074;2022-11-15T15:17:36;100125.97;;;8.95;82.06
64792;BME280;51226;47.504;19.074;2022-11-15T15:20:40;100129.22;;;8.89;81.90
64792;BME280;51226;47.504;19.074;2022-11-15T15:23:44;100123.91;;;8.86;81.82
64792;BME280;51226;47.504;19.074;2022-11-15T15:26:47;100122.31;;;8.90;81.94
64792;BME280;51226;47.504;19.074;2022-11-15T15:29:50;100113.50;;;8.86;81.98
64792;BME280;51226;47.504;19.074;2022-11-15T15:32:53;100108.50;;;8.91;81.93
64792;BME280;51226;47.504;19.074;2022-11-15T15:35:56;100122.44;;;8.93;82.09
64792;BME280;51226;47.504;19.074;2022-11-15T15:38:59;100126.81;;;8.94;82.08
64792;BME280;51226;47.504;19.074;2022-11-15T15:42:02;100125.03;;;8.93;82.06
64792;BME280;51226;47.504;19.074;2022-11-15T15:45:07;100130.91;;;8.87;82.33
64792;BME280;51226;47.504;19.074;2022-11-15T15:48:15;100121.44;;;8.89;82.27
64792;BME280;51226;47.504;19.074;2022-11-15T15:51:18;100125.69;;;8.87;82.39
64792;BME280;51226;47.504;19.074;2022-11-15T15:54:22;100125.75;;;8.89;82.44
64792;BME280;51226;47.504;19.074;2022-11-15T15:57:25;100120.28;;;8.83;82.66
64792;BME280;51226;47.504;19.074;2022-11-15T16:00:28;100111.28;;;8.75;83.37
64792;BME280;51226;47.504;19.074;2022-11-15T16:03:31;100119.28;;;8.79;83.47
64792;BME280;51226;47.504;19.074;2022-11-15T16:06:39;100108.63;;;8.73;83.70
64792;BME280;51226;47.504;19.074;2022-11-15T16:09:43;100111.34;;;8.76;83.95
64792;BME280;51226;47.504;19.074;2022-11-15T16:13:05;100102.69;;;8.76;84.30
64792;BME280;51226;47.504;19.074;2022-11-15T16:16:12;100101.72;;;8.74;84.38
64792;BME280;51226;47.504;19.074;2022-11-15T16:19:15;100102.84;;;8.80;83.81
64792;BME280;51226;47.504;19.074;2022-11-15T16:22:18;100103.75;;;8.81;83.83
64792;BME280;51226;47.504;19.074;2022-11-15T16:25:21;100107.16;;;8.80;83.85
64792;BME280;51226;47.504;19.074;2022-11-15T16:28:27;100101.84;;;8.77;84.04
64792;BME280;51226;47.504;19.074;2022-11-15T16:31:30;100110.63;;;8.79;83.96
64792;BME280;51226;47.504;19.074;2022-11-15T16:34:33;100101.72;;;8.74;84.22
64792;BME280;51226;47.504;19.074;2022-11-15T16:37:42;100103.31;;;8.70;84.53
64792;BME280;51226;47.504;19.074;2022-11-15T16:40:48;100099.88;;;8.71;84.72
64792;BME280;51226;47.504;19.074;2022-11-15T16:43:51;100102.44;;;8.69;84.80
64792;BME280;51226;47.504;19.074;2022-11-15T16:46:54;100097.22;;;8.69;84.89
64792;BME280;51226;47.504;19.074;2022-11-15T16:49:56;100097.22;;;8.69;84.94
64792;BME280;51226;47.504;19.074;2022-11-15T16:53:00;100088.53;;;8.69;85.12
64792;BME280;51226;47.504;19.074;2022-11-15T16:56:03;100087.84;;;8.73;84.97
64792;BME280;51226;47.504;19.074;2022-11-15T16:59:16;100086.88;;;8.71;85.36
64792;BME280;51226;47.504;19.074;2022-11-15T17:02:19;100082.69;;;8.75;85.42
64792;BME280;51226;47.504;19.074;2022-11-15T17:05:23;100083.47;;;8.72;85.43
64792;BME280;51226;47.504;19.074;2022-11-15T17:08:26;100075.22;;;8.61;86.10
64792;BME280;51226;47.504;19.074;2022-11-15T17:11:30;100075.09;;;8.58;86.26
64792;BME280;51226;47.504;19.074;2022-11-15T17:14:32;100079.34;;;8.56;86.38
64792;BME280;51226;47.504;19.074;2022-11-15T17:17:35;100076.88;;;8.59;86.54
64792;BME280;51226;47.504;19.074;2022-11-15T17:20:39;100076.00;;;8.59;86.51
64792;BME280;51226;47.504;19.074;2022-11-15T17:23:43;100076.88;;;8.59;86.40
64792;BME280;51226;47.504;19.074;2022-11-15T17:26:46;100067.44;;;8.42;87.23
64792;BME280;51226;47.504;19.074;2022-11-15T17:29:48;100063.34;;;8.45;87.12
64792;BME280;51226;47.504;19.074;2022-11-15T17:32:51;100064.56;;;8.55;87.07
64792;BME280;51226;47.504;19.074;2022-11-15T17:35:59;100063.38;;;8.47;87.42
64792;BME280;51226;47.504;19.074;2022-11-15T17:39:03;100058.13;;;8.45;87.63
64792;BME280;51226;47.504;19.074;2022-11-15T17:42:06;100059.06;;;8.47;87.68
64792;BME280;51226;47.504;19.074;2022-11-15T17:45:09;100052.78;;;8.42;87.91
64792;BME280;51226;47.504;19.074;2022-11-15T17:48:12;100040.81;;;8.46;87.93
64792;BME280;51226;47.504;19.074;2022-11-15T17:51:17;100040.59;;;8.41;88.16
64792;BME280;51226;47.504;19.074;2022-11-15T17:54:20;100037.34;;;8.45;88.22
64792;BME280;51226;47.504;19.074;2022-11-15T17:57:23;100031.50;;;8.51;88.59
64792;BME280;51226;47.504;19.074;2022-11-15T18:00:26;100029.09;;;8.56;88.61
64792;BME280;51226;47.504;19.074;2022-11-15T18:03:32;100020.16;;;8.49;88.88
64792;BME280;51226;47.504;19.074;2022-11-15T18:06:36;100018.75;;;8.57;88.57
64792;BME280;51226;47.504;19.074;2022-11-15T18:09:39;100012.03;;;8.62;88.45
64792;BME280;51226;47.504;19.074;2022-11-15T18:12:45;100012.16;;;8.65;88.07
64792;BME280;51226;47.504;19.074;2022-11-15T18:15:53;100016.63;;;8.69;87.83